sensor_id;sensor_type;location;lat;lon;timestamp;P1;durP1;ratioP1;P2;durP2;ratioP2
22646;SDS011;11490;42.726;23.268;2022-07-06T00:01:20;13.95;;;6.22;;
22646;SDS011;11490;42.726;23.268;2022-07-06T00:03:46;9.57;;;6.03;;
22646;SDS011;11490;42.726;23.268;2022-07-06T00:06:12;9.70;;;6.63;;
22646;SDS011;11490;42.726;23.268;2022-07-06T00:08:38;10.18;;;6.65;;
22646;SDS011;11490;42.726;23.268;2022-07-06T00:11:04;10.18;;;6.38;;
22646;SDS011;11490;42.726;23.268;2022-07-06T00:13:30;11.25;;;6.47;;
22646;SDS011;11490;42.726;23.268;2022-07-06T00:15:55;9.57;;;6.07;;
22646;SDS011;11490;42.726;23.268;2022-07-06T00:18:21;7.40;;;5.30;;
22646;SDS011;11490;42.726;23.268;2022-07-06T00:20:46;10.65;;;6.45;;
22646;SDS011;11490;42.726;23.268;2022-07-06T00:23:12;9.38;;;6.07;;
22646;SDS011;11490;42.726;23.268;2022-07-06T00:25:37;15.98;;;6.28;;
22646;SDS011;11490;42.726;23.268;2022-07-06T00:28:03;8.98;;;5.70;;
22646;SDS011;11490;42.726;23.268;2022-07-06T00:30:29;9.05;;;5.32;;
22646;SDS011;11490;42.726;23.268;2022-07-06T00:32:54;10.25;;;6.32;;
22646;SDS011;11490;42.726;23.268;2022-07-06T00:35:20;9.27;;;5.97;;
22646;SDS011;11490;42.726;23.268;2022-07-06T00:37:45;12.20;;;5.93;;
22646;SDS011;11490;42.726;23.268;2022-07-06T00:40:10;9.05;;;6.20;;
22646;SDS011;11490;42.726;23.268;2022-07-06T00:42:44;9.82;;;6.68;;
22646;SDS011;11490;42.726;23.268;2022-07-06T00:45:11;10.57;;;6.22;;
22646;SDS011;11490;42.726;23.268;2022-07-06T00:47:38;10.80;;;6.85;;
22646;SDS011;11490;42.726;23.268;2022-07-06T00:50:05;8.88;;;6.25;;
22646;SDS011;11490;42.726;23.268;2022-07-06T00:52:44;10.43;;;5.82;;
22646;SDS011;11490;42.726;23.268;2022-07-06T00:55:12;10.60;;;6.30;;
22646;SDS011;11490;42.726;23.268;2022-07-06T00:57:39;15.38;;;5.70;;
22646;SDS011;11490;42.726;23.268;2022-07-06T01:00:06;9.80;;;5.70;;
22646;SDS011;11490;42.726;23.268;2022-07-06T01:02:34;10.77;;;6.57;;
22646;SDS011;11490;42.726;23.268;2022-07-06T01:05:00;10.55;;;6.13;;
22646;SDS011;11490;42.726;23.268;2022-07-06T01:07:26;10.30;;;6.38;;
22646;SDS011;11490;42.726;23.268;2022-07-06T01:09:53;10.50;;;6.25;;
22646;SDS011;11490;42.726;23.268;2022-07-06T01:12:19;8.27;;;5.68;;
22646;SDS011;11490;42.726;23.268;2022-07-06T01:14:45;9.05;;;5.65;;
22646;SDS011;11490;42.726;23.268;2022-07-06T01:17:10;9.45;;;5.50;;
22646;SDS011;11490;42.726;23.268;2022-07-06T01:19:36;14.68;;;5.75;;
22646;SDS011;11490;42.726;23.268;2022-07-06T01:22:02;10.55;;;5.97;;
22646;SDS011;11490;42.726;23.268;2022-07-06T01:24:27;11.48;;;6.18;;
22646;SDS011;11490;42.726;23.268;2022-07-06T01:26:53;7.85;;;5.53;;
22646;SDS011;11490;42.726;23.268;2022-07-06T01:29:19;14.23;;;6.75;;
22646;SDS011;11490;42.726;23.268;2022-07-06T01:31:48;11.43;;;6.35;;
22646;SDS011;11490;42.726;23.268;2022-07-06T01:34:15;8.32;;;6.00;;
22646;SDS011;11490;42.726;23.268;2022-07-06T01:36:42;13.35;;;6.15;;
22646;SDS011;11490;42.726;23.268;2022-07-06T01:39:08;10.35;;;5.68;;
22646;SDS011;11490;42.726;23.268;2022-07-06T01:41:34;7.93;;;5.78;;
22646;SDS011;11490;42.726;23.268;2022-07-06T01:43:59;9.60;;;6.47;;
22646;SDS011;11490;42.726;23.268;2022-07-06T01:46:25;10.18;;;6.38;;
22646;SDS011;11490;42.726;23.268;2022-07-06T01:48:50;9.45;;;5.82;;
22646;SDS011;11490;42.726;23.268;2022-07-06T01:51:16;13.73;;;6.30;;
22646;SDS011;11490;42.726;23.268;2022-07-06T01:53:41;8.65;;;5.80;;
22646;SDS011;11490;42.726;23.268;2022-07-06T01:56:07;10.10;;;6.03;;
22646;SDS011;11490;42.726;23.268;2022-07-06T01:58:33;9.60;;;5.97;;
22646;SDS011;11490;42.726;23.268;2022-07-06T02:00:58;11.40;;;6.75;;
22646;SDS011;11490;42.726;23.268;2022-07-06T02:03:24;14.85;;;7.20;;
22646;SDS011;11490;42.726;23.268;2022-07-06T02:05:50;9.35;;;5.68;;
22646;SDS011;11490;42.726;23.268;2022-07-06T02:08:15;8.55;;;5.40;;
22646;SDS011;11490;42.726;23.268;2022-07-06T02:10:40;8.77;;;5.78;;
22646;SDS011;11490;42.726;23.268;2022-07-06T02:13:06;8.18;;;5.63;;
22646;SDS011;11490;42.726;23.268;2022-07-06T02:15:31;9.10;;;6.15;;
22646;SDS011;11490;42.726;23.268;2022-07-06T02:17:57;11.40;;;6.55;;
22646;SDS011;11490;42.726;23.268;2022-07-06T02:20:22;10.07;;;6.35;;
22646;SDS011;11490;42.726;23.268;2022-07-06T02:22:48;11.75;;;6.55;;
22646;SDS011;11490;42.726;23.268;2022-07-06T02:25:13;8.73;;;5.22;;
22646;SDS011;11490;42.726;23.268;2022-07-06T02:27:38;10.55;;;5.50;;
22646;SDS011;11490;42.726;23.268;2022-07-06T02:30:04;9.95;;;6.03;;
22646;SDS011;11490;42.726;23.268;2022-07-06T02:32:30;11.52;;;5.38;;
22646;SDS011;11490;42.726;23.268;2022-07-06T02:34:56;8.60;;;5.65;;
22646;SDS011;11490;42.726;23.268;2022-07-06T02:37:22;8.88;;;5.20;;
22646;SDS011;11490;42.726;23.268;2022-07-06T02:39:48;11.10;;;6.10;;
22646;SDS011;11490;42.726;23.268;2022-07-06T02:42:13;9.23;;;5.78;;
22646;SDS011;11490;42.726;23.268;2022-07-06T02:44:39;9.20;;;5.85;;
22646;SDS011;11490;42.726;23.268;2022-07-06T02:47:05;12.45;;;7.43;;
22646;SDS011;11490;42.726;23.268;2022-07-06T02:49:30;9.48;;;5.97;;
22646;SDS011;11490;42.726;23.268;2022-07-06T02:51:55;7.20;;;4.97;;
22646;SDS011;11490;42.726;23.268;2022-07-06T02:54:21;7.70;;;5.38;;
22646;SDS011;11490;42.726;23.268;2022-07-06T02:56:46;10.05;;;5.95;;
22646;SDS011;11490;42.726;23.268;2022-07-06T02:59:17;8.00;;;5.28;;
22646;SDS011;11490;42.726;23.268;2022-07-06T03:01:42;8.75;;;5.78;;
22646;SDS011;11490;42.726;23.268;2022-07-06T03:04:08;10.10;;;5.80;;
22646;SDS011;11490;42.726;23.268;2022-07-06T03:06:33;7.85;;;5.00;;
22646;SDS011;11490;42.726;23.268;2022-07-06T03:08:58;8.40;;;5.03;;
22646;SDS011;11490;42.726;23.268;2022-07-06T03:11:25;7.78;;;5.20;;
22646;SDS011;11490;42.726;23.268;2022-07-06T03:13:50;6.35;;;5.03;;
22646;SDS011;11490;42.726;23.268;2022-07-06T03:16:16;8.82;;;5.63;;
22646;SDS011;11490;42.726;23.268;2022-07-06T03:18:41;8.85;;;4.82;;
22646;SDS011;11490;42.726;23.268;2022-07-06T03:21:07;9.25;;;5.47;;
22646;SDS011;11490;42.726;23.268;2022-07-06T03:23:32;8.75;;;4.75;;
22646;SDS011;11490;42.726;23.268;2022-07-06T03:25:58;7.15;;;4.85;;
22646;SDS011;11490;42.726;23.268;2022-07-06T03:28:23;10.98;;;5.43;;
22646;SDS011;11490;42.726;23.268;2022-07-06T03:30:49;6.32;;;4.50;;
22646;SDS011;11490;42.726;23.268;2022-07-06T03:33:14;8.38;;;4.78;;
22646;SDS011;11490;42.726;23.268;2022-07-06T03:35:39;6.47;;;4.20;;
22646;SDS011;11490;42.726;23.268;2022-07-06T03:38:05;11.70;;;5.65;;
22646;SDS011;11490;42.726;23.268;2022-07-06T03:40:30;8.07;;;5.60;;
22646;SDS011;11490;42.726;23.268;2022-07-06T03:42:56;8.55;;;4.15;;
22646;SDS011;11490;42.726;23.268;2022-07-06T03:45:21;8.98;;;5.57;;
22646;SDS011;11490;42.726;23.268;2022-07-06T03:47:47;11.43;;;5.50;;
22646;SDS011;11490;42.726;23.268;2022-07-06T03:50:12;10.27;;;4.88;;
22646;SDS011;11490;42.726;23.268;2022-07-06T03:52:37;7.50;;;5.07;;
22646;SDS011;11490;42.726;23.268;2022-07-06T03:55:06;8.23;;;5.30;;
22646;SDS011;11490;42.726;23.268;2022-07-06T03:57:33;6.45;;;4.57;;
22646;SDS011;11490;42.726;23.268;2022-07-06T03:59:59;8.25;;;5.10;;
22646;SDS011;11490;42.726;23.268;2022-07-06T04:02:24;8.45;;;5.43;;
22646;SDS011;11490;42.726;23.268;2022-07-06T04:04:50;9.02;;;5.40;;
22646;SDS011;11490;42.726;23.268;2022-07-06T04:07:15;10.82;;;5.60;;
22646;SDS011;11490;42.726;23.268;2022-07-06T04:09:40;7.78;;;5.03;;
22646;SDS011;11490;42.726;23.268;2022-07-06T04:12:06;7.22;;;4.90;;
22646;SDS011;11490;42.726;23.268;2022-07-06T04:14:32;6.63;;;4.38;;
22646;SDS011;11490;42.726;23.268;2022-07-06T04:16:57;9.23;;;5.28;;
22646;SDS011;11490;42.726;23.268;2022-07-06T04:19:22;15.35;;;4.97;;
22646;SDS011;11490;42.726;23.268;2022-07-06T04:21:48;7.28;;;4.70;;
22646;SDS011;11490;42.726;23.268;2022-07-06T04:24:13;9.45;;;5.43;;
22646;SDS011;11490;42.726;23.268;2022-07-06T04:26:39;7.72;;;4.72;;
22646;SDS011;11490;42.726;23.268;2022-07-06T04:29:04;11.75;;;5.75;;
22646;SDS011;11490;42.726;23.268;2022-07-06T04:31:30;10.07;;;4.72;;
22646;SDS011;11490;42.726;23.268;2022-07-06T04:33:55;8.55;;;5.05;;
22646;SDS011;11490;42.726;23.268;2022-07-06T04:36:20;8.52;;;5.45;;
22646;SDS011;11490;42.726;23.268;2022-07-06T04:38:46;10.20;;;5.50;;
22646;SDS011;11490;42.726;23.268;2022-07-06T04:41:12;10.70;;;5.85;;
22646;SDS011;11490;42.726;23.268;2022-07-06T04:43:38;8.07;;;5.35;;
22646;SDS011;11490;42.726;23.268;2022-07-06T04:46:03;9.23;;;5.90;;
22646;SDS011;11490;42.726;23.268;2022-07-06T04:48:30;9.05;;;5.47;;
22646;SDS011;11490;42.726;23.268;2022-07-06T04:50:57;13.45;;;7.70;;
22646;SDS011;11490;42.726;23.268;2022-07-06T04:53:22;14.00;;;7.03;;
22646;SDS011;11490;42.726;23.268;2022-07-06T04:55:48;13.15;;;6.75;;
22646;SDS011;11490;42.726;23.268;2022-07-06T04:58:13;13.93;;;7.30;;
22646;SDS011;11490;42.726;23.268;2022-07-06T05:00:38;11.43;;;7.18;;
22646;SDS011;11490;42.726;23.268;2022-07-06T05:03:04;11.98;;;7.28;;
22646;SDS011;11490;42.726;23.268;2022-07-06T05:05:29;14.65;;;7.20;;
22646;SDS011;11490;42.726;23.268;2022-07-06T05:07:55;12.75;;;7.50;;
22646;SDS011;11490;42.726;23.268;2022-07-06T05:10:20;12.15;;;7.57;;
22646;SDS011;11490;42.726;23.268;2022-07-06T05:12:46;15.73;;;8.07;;
22646;SDS011;11490;42.726;23.268;2022-07-06T05:15:11;12.70;;;7.53;;
22646;SDS011;11490;42.726;23.268;2022-07-06T05:17:44;12.38;;;7.93;;
22646;SDS011;11490;42.726;23.268;2022-07-06T05:20:12;11.68;;;7.57;;
22646;SDS011;11490;42.726;23.268;2022-07-06T05:22:38;13.13;;;7.72;;
22646;SDS011;11490;42.726;23.268;2022-07-06T05:25:03;14.93;;;7.80;;
22646;SDS011;11490;42.726;23.268;2022-07-06T05:27:29;16.17;;;8.32;;
22646;SDS011;11490;42.726;23.268;2022-07-06T05:29:55;14.65;;;8.15;;
22646;SDS011;11490;42.726;23.268;2022-07-06T05:32:20;17.08;;;9.35;;
22646;SDS011;11490;42.726;23.268;2022-07-06T05:34:45;14.95;;;7.47;;
22646;SDS011;11490;42.726;23.268;2022-07-06T05:37:11;16.95;;;8.05;;
22646;SDS011;11490;42.726;23.268;2022-07-06T05:39:36;16.23;;;8.63;;
22646;SDS011;11490;42.726;23.268;2022-07-06T05:42:08;15.65;;;8.20;;
22646;SDS011;11490;42.726;23.268;2022-07-06T05:44:34;13.25;;;7.43;;
22646;SDS011;11490;42.726;23.268;2022-07-06T05:46:59;14.40;;;7.88;;
22646;SDS011;11490;42.726;23.268;2022-07-06T05:49:45;9.52;;;6.28;;
22646;SDS011;11490;42.726;23.268;2022-07-06T05:52:28;14.43;;;6.95;;
22646;SDS011;11490;42.726;23.268;2022-07-06T05:54:54;14.70;;;7.18;;
22646;SDS011;11490;42.726;23.268;2022-07-06T05:57:19;14.27;;;7.60;;
22646;SDS011;11490;42.726;23.268;2022-07-06T05:59:45;11.52;;;6.75;;
22646;SDS011;11490;42.726;23.268;2022-07-06T06:02:10;10.40;;;6.72;;
22646;SDS011;11490;42.726;23.268;2022-07-06T06:04:36;11.45;;;6.32;;
22646;SDS011;11490;42.726;23.268;2022-07-06T06:07:01;12.20;;;6.70;;
22646;SDS011;11490;42.726;23.268;2022-07-06T06:09:29;11.40;;;6.50;;
22646;SDS011;11490;42.726;23.268;2022-07-06T06:11:57;11.20;;;7.22;;
22646;SDS011;11490;42.726;23.268;2022-07-06T06:14:23;12.02;;;7.30;;
22646;SDS011;11490;42.726;23.268;2022-07-06T06:16:48;12.13;;;7.20;;
22646;SDS011;11490;42.726;23.268;2022-07-06T06:19:14;15.50;;;6.80;;
22646;SDS011;11490;42.726;23.268;2022-07-06T06:21:40;9.95;;;6.53;;
22646;SDS011;11490;42.726;23.268;2022-07-06T06:24:05;11.20;;;7.10;;
22646;SDS011;11490;42.726;23.268;2022-07-06T06:26:31;12.40;;;8.02;;
22646;SDS011;11490;42.726;23.268;2022-07-06T06:28:56;11.98;;;7.50;;
22646;SDS011;11490;42.726;23.268;2022-07-06T06:31:22;13.30;;;8.82;;
22646;SDS011;11490;42.726;23.268;2022-07-06T06:33:47;12.35;;;6.70;;
22646;SDS011;11490;42.726;23.268;2022-07-06T06:36:12;10.52;;;7.00;;
22646;SDS011;11490;42.726;23.268;2022-07-06T06:38:38;13.02;;;6.75;;
22646;SDS011;11490;42.726;23.268;2022-07-06T06:41:04;10.23;;;7.32;;
22646;SDS011;11490;42.726;23.268;2022-07-06T06:43:29;12.07;;;7.05;;
22646;SDS011;11490;42.726;23.268;2022-07-06T06:45:54;10.18;;;6.93;;
22646;SDS011;11490;42.726;23.268;2022-07-06T06:48:20;13.00;;;7.25;;
22646;SDS011;11490;42.726;23.268;2022-07-06T06:50:45;13.23;;;7.07;;
22646;SDS011;11490;42.726;23.268;2022-07-06T06:53:11;10.52;;;7.03;;
22646;SDS011;11490;42.726;23.268;2022-07-06T06:55:37;11.40;;;7.93;;
22646;SDS011;11490;42.726;23.268;2022-07-06T06:58:02;11.68;;;6.45;;
22646;SDS011;11490;42.726;23.268;2022-07-06T07:00:30;12.35;;;7.25;;
22646;SDS011;11490;42.726;23.268;2022-07-06T07:02:56;12.55;;;7.07;;
22646;SDS011;11490;42.726;23.268;2022-07-06T07:05:21;11.02;;;6.90;;
22646;SDS011;11490;42.726;23.268;2022-07-06T07:07:47;11.10;;;7.43;;
22646;SDS011;11490;42.726;23.268;2022-07-06T07:10:12;11.73;;;7.03;;
22646;SDS011;11490;42.726;23.268;2022-07-06T07:12:44;15.20;;;7.43;;
22646;SDS011;11490;42.726;23.268;2022-07-06T07:15:11;9.82;;;7.00;;
22646;SDS011;11490;42.726;23.268;2022-07-06T07:17:36;10.93;;;7.00;;
22646;SDS011;11490;42.726;23.268;2022-07-06T07:20:02;12.52;;;7.45;;
22646;SDS011;11490;42.726;23.268;2022-07-06T07:22:31;11.05;;;7.00;;
22646;SDS011;11490;42.726;23.268;2022-07-06T07:24:56;11.70;;;7.60;;
22646;SDS011;11490;42.726;23.268;2022-07-06T07:40:58;12.98;;;7.40;;
22646;SDS011;11490;42.726;23.268;2022-07-06T07:46:57;11.52;;;7.25;;
22646;SDS011;11490;42.726;23.268;2022-07-06T07:49:22;12.15;;;7.68;;
22646;SDS011;11490;42.726;23.268;2022-07-06T07:51:48;12.05;;;7.80;;
22646;SDS011;11490;42.726;23.268;2022-07-06T07:54:14;11.10;;;7.43;;
22646;SDS011;11490;42.726;23.268;2022-07-06T07:56:39;11.65;;;7.30;;
22646;SDS011;11490;42.726;23.268;2022-07-06T07:59:08;12.38;;;7.50;;
22646;SDS011;11490;42.726;23.268;2022-07-06T08:01:33;9.52;;;6.53;;
22646;SDS011;11490;42.726;23.268;2022-07-06T08:03:59;12.18;;;8.13;;
22646;SDS011;11490;42.726;23.268;2022-07-06T08:06:25;17.85;;;8.52;;
22646;SDS011;11490;42.726;23.268;2022-07-06T08:08:50;10.55;;;7.00;;
22646;SDS011;11490;42.726;23.268;2022-07-06T08:11:16;11.68;;;7.20;;
22646;SDS011;11490;42.726;23.268;2022-07-06T08:13:42;13.57;;;8.02;;
22646;SDS011;11490;42.726;23.268;2022-07-06T08:16:08;13.27;;;8.23;;
22646;SDS011;11490;42.726;23.268;2022-07-06T08:18:34;11.60;;;7.60;;
22646;SDS011;11490;42.726;23.268;2022-07-06T08:21:00;10.25;;;6.95;;
22646;SDS011;11490;42.726;23.268;2022-07-06T08:23:26;11.52;;;6.50;;
22646;SDS011;11490;42.726;23.268;2022-07-06T08:25:51;9.75;;;6.18;;
22646;SDS011;11490;42.726;23.268;2022-07-06T08:28:17;11.60;;;6.65;;
22646;SDS011;11490;42.726;23.268;2022-07-06T08:30:42;11.70;;;6.65;;
22646;SDS011;11490;42.726;23.268;2022-07-06T08:33:07;11.00;;;7.18;;
22646;SDS011;11490;42.726;23.268;2022-07-06T08:35:33;9.65;;;6.70;;
22646;SDS011;11490;42.726;23.268;2022-07-06T08:37:58;12.57;;;6.75;;
22646;SDS011;11490;42.726;23.268;2022-07-06T08:40:24;12.18;;;7.72;;
22646;SDS011;11490;42.726;23.268;2022-07-06T08:42:56;11.95;;;7.18;;
22646;SDS011;11490;42.726;23.268;2022-07-06T08:45:23;11.57;;;7.32;;
22646;SDS011;11490;42.726;23.268;2022-07-06T08:47:51;9.35;;;6.65;;
22646;SDS011;11490;42.726;23.268;2022-07-06T08:50:19;16.73;;;7.55;;
22646;SDS011;11490;42.726;23.268;2022-07-06T08:52:48;11.68;;;6.85;;
22646;SDS011;11490;42.726;23.268;2022-07-06T08:55:14;14.45;;;9.02;;
22646;SDS011;11490;42.726;23.268;2022-07-06T08:57:42;14.93;;;8.88;;
22646;SDS011;11490;42.726;23.268;2022-07-06T09:00:10;14.13;;;8.60;;
22646;SDS011;11490;42.726;23.268;2022-07-06T09:02:36;14.00;;;8.30;;
22646;SDS011;11490;42.726;23.268;2022-07-06T09:05:03;12.20;;;7.13;;
22646;SDS011;11490;42.726;23.268;2022-07-06T09:07:29;18.55;;;7.53;;
22646;SDS011;11490;42.726;23.268;2022-07-06T09:09:55;16.33;;;7.30;;
22646;SDS011;11490;42.726;23.268;2022-07-06T09:12:21;10.73;;;6.43;;
22646;SDS011;11490;42.726;23.268;2022-07-06T09:14:47;9.85;;;5.82;;
22646;SDS011;11490;42.726;23.268;2022-07-06T09:17:12;11.15;;;6.93;;
22646;SDS011;11490;42.726;23.268;2022-07-06T09:19:38;16.30;;;7.95;;
22646;SDS011;11490;42.726;23.268;2022-07-06T09:22:04;13.60;;;8.40;;
22646;SDS011;11490;42.726;23.268;2022-07-06T09:24:30;10.10;;;6.18;;
22646;SDS011;11490;42.726;23.268;2022-07-06T09:26:59;12.38;;;7.50;;
22646;SDS011;11490;42.726;23.268;2022-07-06T09:29:29;8.88;;;6.18;;
22646;SDS011;11490;42.726;23.268;2022-07-06T09:31:56;18.08;;;7.82;;
22646;SDS011;11490;42.726;23.268;2022-07-06T09:34:41;17.52;;;8.05;;
22646;SDS011;11490;42.726;23.268;2022-07-06T09:37:10;15.20;;;8.63;;
22646;SDS011;11490;42.726;23.268;2022-07-06T09:39:36;22.15;;;11.02;;
22646;SDS011;11490;42.726;23.268;2022-07-06T09:42:09;17.10;;;9.82;;
22646;SDS011;11490;42.726;23.268;2022-07-06T09:44:36;13.68;;;7.65;;
22646;SDS011;11490;42.726;23.268;2022-07-06T09:47:07;13.10;;;8.52;;
22646;SDS011;11490;42.726;23.268;2022-07-06T09:49:34;16.17;;;9.73;;
22646;SDS011;11490;42.726;23.268;2022-07-06T09:52:00;13.38;;;7.10;;
22646;SDS011;11490;42.726;23.268;2022-07-06T09:54:27;15.52;;;9.00;;
22646;SDS011;11490;42.726;23.268;2022-07-06T09:56:53;16.75;;;8.13;;
22646;SDS011;11490;42.726;23.268;2022-07-06T09:59:21;13.25;;;8.18;;
22646;SDS011;11490;42.726;23.268;2022-07-06T10:01:50;14.63;;;8.50;;
22646;SDS011;11490;42.726;23.268;2022-07-06T10:04:17;11.18;;;7.53;;
22646;SDS011;11490;42.726;23.268;2022-07-06T10:06:45;15.85;;;9.85;;
22646;SDS011;11490;42.726;23.268;2022-07-06T10:09:11;11.77;;;7.90;;
22646;SDS011;11490;42.726;23.268;2022-07-06T10:11:39;20.02;;;9.90;;
22646;SDS011;11490;42.726;23.268;2022-07-06T10:14:06;51.13;;;12.85;;
22646;SDS011;11490;42.726;23.268;2022-07-06T10:16:34;18.60;;;9.70;;
22646;SDS011;11490;42.726;23.268;2022-07-06T10:19:01;17.00;;;7.85;;
22646;SDS011;11490;42.726;23.268;2022-07-06T10:21:29;11.50;;;7.88;;
22646;SDS011;11490;42.726;23.268;2022-07-06T10:23:55;12.88;;;8.20;;
22646;SDS011;11490;42.726;23.268;2022-07-06T10:26:25;12.15;;;7.55;;
22646;SDS011;11490;42.726;23.268;2022-07-06T10:28:50;15.02;;;8.77;;
22646;SDS011;11490;42.726;23.268;2022-07-06T10:31:17;12.18;;;7.32;;
22646;SDS011;11490;42.726;23.268;2022-07-06T10:33:44;11.07;;;6.78;;
22646;SDS011;11490;42.726;23.268;2022-07-06T10:36:10;12.85;;;7.47;;
22646;SDS011;11490;42.726;23.268;2022-07-06T10:38:37;13.85;;;7.85;;
22646;SDS011;11490;42.726;23.268;2022-07-06T10:41:03;13.80;;;8.57;;
22646;SDS011;11490;42.726;23.268;2022-07-06T10:46:04;12.13;;;7.38;;
22646;SDS011;11490;42.726;23.268;2022-07-06T10:48:36;13.10;;;8.27;;
22646;SDS011;11490;42.726;23.268;2022-07-06T10:51:04;11.30;;;7.65;;
22646;SDS011;11490;42.726;23.268;2022-07-06T10:53:31;16.08;;;9.05;;
22646;SDS011;11490;42.726;23.268;2022-07-06T10:56:03;13.30;;;8.88;;
22646;SDS011;11490;42.726;23.268;2022-07-06T11:01:02;16.30;;;10.13;;
22646;SDS011;11490;42.726;23.268;2022-07-06T11:13:43;13.75;;;8.77;;
22646;SDS011;11490;42.726;23.268;2022-07-06T11:39:30;15.10;;;9.25;;
22646;SDS011;11490;42.726;23.268;2022-07-06T11:42:07;11.82;;;7.88;;
22646;SDS011;11490;42.726;23.268;2022-07-06T11:44:36;13.57;;;8.80;;
22646;SDS011;11490;42.726;23.268;2022-07-06T11:47:03;11.75;;;7.97;;
22646;SDS011;11490;42.726;23.268;2022-07-06T11:49:34;13.15;;;8.68;;
22646;SDS011;11490;42.726;23.268;2022-07-06T11:52:17;12.50;;;8.65;;
22646;SDS011;11490;42.726;23.268;2022-07-06T12:12:16;11.13;;;7.75;;
22646;SDS011;11490;42.726;23.268;2022-07-06T12:26:04;9.23;;;6.50;;
22646;SDS011;11490;42.726;23.268;2022-07-06T13:09:57;9.98;;;4.55;;
22646;SDS011;11490;42.726;23.268;2022-07-06T13:12:24;5.80;;;4.10;;
22646;SDS011;11490;42.726;23.268;2022-07-06T13:14:49;5.20;;;3.53;;
22646;SDS011;11490;42.726;23.268;2022-07-06T13:17:16;6.30;;;3.92;;
22646;SDS011;11490;42.726;23.268;2022-07-06T13:19:44;7.15;;;4.50;;
22646;SDS011;11490;42.726;23.268;2022-07-06T13:22:09;6.35;;;4.03;;
22646;SDS011;11490;42.726;23.268;2022-07-06T13:24:35;4.55;;;2.63;;
22646;SDS011;11490;42.726;23.268;2022-07-06T13:27:00;4.55;;;3.30;;
22646;SDS011;11490;42.726;23.268;2022-07-06T13:29:26;4.68;;;3.20;;
22646;SDS011;11490;42.726;23.268;2022-07-06T13:31:51;4.10;;;2.80;;
22646;SDS011;11490;42.726;23.268;2022-07-06T13:34:17;3.20;;;2.42;;
22646;SDS011;11490;42.726;23.268;2022-07-06T13:36:42;4.68;;;2.60;;
22646;SDS011;11490;42.726;23.268;2022-07-06T13:39:08;3.72;;;2.65;;
22646;SDS011;11490;42.726;23.268;2022-07-06T13:41:35;4.35;;;3.30;;
22646;SDS011;11490;42.726;23.268;2022-07-06T13:44:01;4.00;;;2.95;;
22646;SDS011;11490;42.726;23.268;2022-07-06T13:46:28;3.95;;;2.70;;
22646;SDS011;11490;42.726;23.268;2022-07-06T13:48:57;6.13;;;2.83;;
22646;SDS011;11490;42.726;23.268;2022-07-06T13:51:24;4.20;;;2.47;;
22646;SDS011;11490;42.726;23.268;2022-07-06T13:53:51;3.88;;;2.72;;
22646;SDS011;11490;42.726;23.268;2022-07-06T13:56:17;6.00;;;2.78;;
22646;SDS011;11490;42.726;23.268;2022-07-06T13:58:43;3.25;;;2.45;;
22646;SDS011;11490;42.726;23.268;2022-07-06T14:01:09;4.28;;;3.38;;
22646;SDS011;11490;42.726;23.268;2022-07-06T14:03:35;4.50;;;2.65;;
22646;SDS011;11490;42.726;23.268;2022-07-06T14:06:03;14.55;;;3.38;;
22646;SDS011;11490;42.726;23.268;2022-07-06T14:08:29;3.83;;;2.40;;
22646;SDS011;11490;42.726;23.268;2022-07-06T14:10:55;4.60;;;2.42;;
22646;SDS011;11490;42.726;23.268;2022-07-06T14:13:22;3.63;;;2.60;;
22646;SDS011;11490;42.726;23.268;2022-07-06T14:15:48;6.70;;;2.53;;
22646;SDS011;11490;42.726;23.268;2022-07-06T14:18:14;4.47;;;2.60;;
22646;SDS011;11490;42.726;23.268;2022-07-06T14:20:42;3.22;;;2.50;;
22646;SDS011;11490;42.726;23.268;2022-07-06T14:23:09;6.35;;;3.22;;
22646;SDS011;11490;42.726;23.268;2022-07-06T14:25:36;3.05;;;2.50;;
22646;SDS011;11490;42.726;23.268;2022-07-06T14:28:02;3.63;;;2.58;;
22646;SDS011;11490;42.726;23.268;2022-07-06T14:30:28;3.95;;;2.65;;
22646;SDS011;11490;42.726;23.268;2022-07-06T14:32:53;5.90;;;2.85;;
22646;SDS011;11490;42.726;23.268;2022-07-06T14:35:19;5.57;;;2.40;;
22646;SDS011;11490;42.726;23.268;2022-07-06T14:37:44;3.13;;;2.42;;
22646;SDS011;11490;42.726;23.268;2022-07-06T14:40:10;5.55;;;3.03;;
22646;SDS011;11490;42.726;23.268;2022-07-06T14:42:38;6.18;;;2.72;;
22646;SDS011;11490;42.726;23.268;2022-07-06T14:45:04;3.22;;;2.47;;
22646;SDS011;11490;42.726;23.268;2022-07-06T14:47:30;3.50;;;2.70;;
22646;SDS011;11490;42.726;23.268;2022-07-06T14:49:56;10.70;;;6.00;;
22646;SDS011;11490;42.726;23.268;2022-07-06T14:52:21;5.75;;;3.10;;
22646;SDS011;11490;42.726;23.268;2022-07-06T14:54:46;4.35;;;2.92;;
22646;SDS011;11490;42.726;23.268;2022-07-06T14:57:12;4.63;;;2.67;;
22646;SDS011;11490;42.726;23.268;2022-07-06T14:59:37;4.85;;;2.88;;
22646;SDS011;11490;42.726;23.268;2022-07-06T15:02:03;5.38;;;2.65;;
22646;SDS011;11490;42.726;23.268;2022-07-06T15:04:29;4.85;;;3.13;;
22646;SDS011;11490;42.726;23.268;2022-07-06T15:06:54;3.53;;;2.72;;
22646;SDS011;11490;42.726;23.268;2022-07-06T15:09:20;3.47;;;2.80;;
22646;SDS011;11490;42.726;23.268;2022-07-06T15:11:45;4.35;;;2.63;;
22646;SDS011;11490;42.726;23.268;2022-07-06T15:14:11;5.30;;;3.15;;
22646;SDS011;11490;42.726;23.268;2022-07-06T15:16:40;6.18;;;2.63;;
22646;SDS011;11490;42.726;23.268;2022-07-06T15:19:05;3.80;;;2.88;;
22646;SDS011;11490;42.726;23.268;2022-07-06T15:21:32;3.20;;;2.50;;
22646;SDS011;11490;42.726;23.268;2022-07-06T15:23:57;4.22;;;2.90;;
22646;SDS011;11490;42.726;23.268;2022-07-06T15:26:22;3.50;;;2.60;;
22646;SDS011;11490;42.726;23.268;2022-07-06T15:28:49;8.40;;;2.92;;
22646;SDS011;11490;42.726;23.268;2022-07-06T15:31:15;3.08;;;2.30;;
22646;SDS011;11490;42.726;23.268;2022-07-06T15:33:40;3.33;;;2.70;;
22646;SDS011;11490;42.726;23.268;2022-07-06T15:36:06;3.10;;;2.30;;
22646;SDS011;11490;42.726;23.268;2022-07-06T15:38:31;4.15;;;2.58;;
22646;SDS011;11490;42.726;23.268;2022-07-06T15:40:59;3.13;;;2.35;;
22646;SDS011;11490;42.726;23.268;2022-07-06T15:43:27;2.67;;;2.13;;
22646;SDS011;11490;42.726;23.268;2022-07-06T15:45:54;5.50;;;3.20;;
22646;SDS011;11490;42.726;23.268;2022-07-06T15:48:22;4.53;;;2.92;;
22646;SDS011;11490;42.726;23.268;2022-07-06T15:50:49;4.55;;;2.25;;
22646;SDS011;11490;42.726;23.268;2022-07-06T15:53:15;4.32;;;2.67;;
22646;SDS011;11490;42.726;23.268;2022-07-06T15:55:41;3.08;;;2.38;;
22646;SDS011;11490;42.726;23.268;2022-07-06T15:58:06;3.20;;;2.63;;
22646;SDS011;11490;42.726;23.268;2022-07-06T16:00:31;2.95;;;2.50;;
22646;SDS011;11490;42.726;23.268;2022-07-06T16:02:57;2.45;;;2.08;;
22646;SDS011;11490;42.726;23.268;2022-07-06T16:05:22;3.97;;;3.20;;
22646;SDS011;11490;42.726;23.268;2022-07-06T16:07:49;3.60;;;2.40;;
22646;SDS011;11490;42.726;23.268;2022-07-06T16:10:15;3.40;;;2.53;;
22646;SDS011;11490;42.726;23.268;2022-07-06T16:12:40;6.50;;;3.22;;
22646;SDS011;11490;42.726;23.268;2022-07-06T16:15:06;4.03;;;2.38;;
22646;SDS011;11490;42.726;23.268;2022-07-06T16:17:32;3.75;;;2.08;;
22646;SDS011;11490;42.726;23.268;2022-07-06T16:19:57;5.75;;;2.95;;
22646;SDS011;11490;42.726;23.268;2022-07-06T16:22:23;3.33;;;2.47;;
22646;SDS011;11490;42.726;23.268;2022-07-06T16:24:50;6.20;;;2.45;;
22646;SDS011;11490;42.726;23.268;2022-07-06T16:27:16;3.28;;;2.67;;
22646;SDS011;11490;42.726;23.268;2022-07-06T16:29:41;3.97;;;2.63;;